sensor_id;sensor_type;location;lat;lon;timestamp;pressure;altitude;pressure_sealevel;temperature;humidity
71938;BME280;59810;48.800;9.086;2023-02-20T00:01:54;98753.78;;;7.63;79.12
71938;BME280;59810;48.800;9.086;2023-02-20T00:04:20;98745.09;;;7.61;79.09
71938;BME280;59810;48.800;9.086;2023-02-20T00:06:46;98750.88;;;7.65;78.85
71938;BME280;59810;48.800;9.086;2023-02-20T00:09:12;98745.28;;;7.60;79.21
71938;BME280;59810;48.800;9.086;2023-02-20T00:11:40;98739.28;;;7.58;78.82
71938;BME280;59810;48.800;9.086;2023-02-20T00:14:06;98747.16;;;7.59;78.91
71938;BME280;59810;48.800;9.086;2023-02-20T00:16:34;98736.00;;;7.62;78.82
71938;BME280;59810;48.800;9.086;2023-02-20T00:18:59;98740.97;;;7.65;78.38
71938;BME280;59810;48.800;9.086;2023-02-20T00:21:25;98727.09;;;7.68;78.53
71938;BME280;59810;48.800;9.086;2023-02-20T00:23:50;98726.69;;;7.65;78.43
71938;BME280;59810;48.800;9.086;2023-02-20T00:26:15;98728.94;;;7.55;78.72
71938;BME280;59810;48.800;9.086;2023-02-20T00:28:41;98738.00;;;7.47;78.88
71938;BME280;59810;48.800;9.086;2023-02-20T00:31:13;98733.66;;;7.46;78.91
71938;BME280;59810;48.800;9.086;2023-02-20T00:33:38;98739.44;;;7.43;79.07
71938;BME280;59810;48.800;9.086;2023-02-20T00:36:04;98735.09;;;7.42;79.24
71938;BME280;59810;48.800;9.086;2023-02-20T00:38:30;98738.81;;;7.41;79.23
71938;BME280;59810;48.800;9.086;2023-02-20T00:40:55;98750.78;;;7.38;79.20
71938;BME280;59810;48.800;9.086;2023-02-20T00:43:21;98757.41;;;7.36;79.48
71938;BME280;59810;48.800;9.086;2023-02-20T00:45:46;98767.09;;;7.30;79.24
71938;BME280;59810;48.800;9.086;2023-02-20T00:48:11;98764.41;;;7.30;79.48
71938;BME280;59810;48.800;9.086;2023-02-20T00:50:37;98767.09;;;7.24;79.82
71938;BME280;59810;48.800;9.086;2023-02-20T00:53:02;98770.16;;;7.21;79.69
71938;BME280;59810;48.800;9.086;2023-02-20T00:55:28;98762.31;;;7.19;79.54
71938;BME280;59810;48.800;9.086;2023-02-20T00:57:53;98758.19;;;7.16;79.60
71938;BME280;59810;48.800;9.086;2023-02-20T01:00:23;98753.84;;;7.15;79.17
71938;BME280;59810;48.800;9.086;2023-02-20T01:02:49;98760.19;;;7.14;79.02
71938;BME280;59810;48.800;9.086;2023-02-20T01:05:17;98758.53;;;7.07;79.21
71938;BME280;59810;48.800;9.086;2023-02-20T01:07:43;98757.28;;;7.09;79.25
71938;BME280;59810;48.800;9.086;2023-02-20T01:10:10;98754.38;;;7.04;79.33
71938;BME280;59810;48.800;9.086;2023-02-20T01:12:35;98763.69;;;7.08;78.89
71938;BME280;59810;48.800;9.086;2023-02-20T01:15:01;98770.06;;;7.01;79.02
71938;BME280;59810;48.800;9.086;2023-02-20T01:17:26;98770.25;;;6.99;79.42
71938;BME280;59810;48.800;9.086;2023-02-20T01:19:51;98770.03;;;6.94;79.48
71938;BME280;59810;48.800;9.086;2023-02-20T01:22:17;98759.06;;;6.89;79.53
71938;BME280;59810;48.800;9.086;2023-02-20T01:24:42;98752.03;;;6.88;79.16
71938;BME280;59810;48.800;9.086;2023-02-20T01:27:08;98755.56;;;6.89;79.33
71938;BME280;59810;48.800;9.086;2023-02-20T01:29:34;98756.38;;;6.89;79.23
71938;BME280;59810;48.800;9.086;2023-02-20T01:31:59;98748.13;;;6.91;78.80
71938;BME280;59810;48.800;9.086;2023-02-20T01:34:24;98750.81;;;6.91;78.95
71938;BME280;59810;48.800;9.086;2023-02-20T01:36:53;98753.69;;;6.89;78.92
71938;BME280;59810;48.800;9.086;2023-02-20T01:39:23;98740.69;;;6.86;78.90
71938;BME280;59810;48.800;9.086;2023-02-20T01:41:52;98745.59;;;6.82;78.82
71938;BME280;59810;48.800;9.086;2023-02-20T01:44:21;98733.59;;;6.78;79.25
71938;BME280;59810;48.800;9.086;2023-02-20T01:46:51;98742.66;;;6.77;78.99
71938;BME280;59810;48.800;9.086;2023-02-20T01:49:22;98746.34;;;6.70;79.30
71938;BME280;59810;48.800;9.086;2023-02-20T01:51:53;98736.41;;;6.64;79.12
71938;BME280;59810;48.800;9.086;2023-02-20T01:54:21;98733.09;;;6.62;79.27
71938;BME280;59810;48.800;9.086;2023-02-20T01:56:48;98729.34;;;6.56;79.62
71938;BME280;59810;48.800;9.086;2023-02-20T01:59:15;98728.75;;;6.61;79.58
71938;BME280;59810;48.800;9.086;2023-02-20T02:01:41;98723.59;;;6.59;79.59
71938;BME280;59810;48.800;9.086;2023-02-20T02:04:08;98727.69;;;6.55;79.73
71938;BME280;59810;48.800;9.086;2023-02-20T02:06:39;98720.69;;;6.54;79.74
71938;BME280;59810;48.800;9.086;2023-02-20T02:09:23;98723.56;;;6.52;79.79
71938;BME280;59810;48.800;9.086;2023-02-20T02:11:52;98720.06;;;6.52;79.85
71938;BME280;59810;48.800;9.086;2023-02-20T02:14:17;98716.13;;;6.54;79.72
71938;BME280;59810;48.800;9.086;2023-02-20T02:17:11;98719.44;;;6.57;79.77
71938;BME280;59810;48.800;9.086;2023-02-20T02:36:22;98703.94;;;6.93;78.37
71938;BME280;59810;48.800;9.086;2023-02-20T02:42:01;98719.25;;;6.99;78.15
71938;BME280;59810;48.800;9.086;2023-02-20T02:44:33;98713.69;;;7.01;77.85
71938;BME280;59810;48.800;9.086;2023-02-20T02:47:05;98719.25;;;6.99;78.24
71938;BME280;59810;48.800;9.086;2023-02-20T02:49:50;98714.28;;;6.96;78.49
71938;BME280;59810;48.800;9.086;2023-02-20T02:52:21;98704.81;;;7.00;78.01
71938;BME280;59810;48.800;9.086;2023-02-20T02:55:07;98704.81;;;7.00;78.27
71938;BME280;59810;48.800;9.086;2023-02-20T02:57:32;98702.31;;;6.99;77.88
71938;BME280;59810;48.800;9.086;2023-02-20T03:00:01;98702.91;;;6.94;78.13
71938;BME280;59810;48.800;9.086;2023-02-20T03:02:35;98702.72;;;6.96;78.50
71938;BME280;59810;48.800;9.086;2023-02-20T03:05:05;98694.47;;;6.97;78.44
71938;BME280;59810;48.800;9.086;2023-02-20T03:07:35;98693.22;;;6.93;78.79
71938;BME280;59810;48.800;9.086;2023-02-20T03:10:06;98699.41;;;6.94;78.75
71938;BME280;59810;48.800;9.086;2023-02-20T03:12:35;98695.91;;;6.93;78.83
71938;BME280;59810;48.800;9.086;2023-02-20T03:15:27;98701.06;;;6.95;78.54
71938;BME280;59810;48.800;9.086;2023-02-20T03:20:42;98692.38;;;6.86;79.01
71938;BME280;59810;48.800;9.086;2023-02-20T03:23:18;98698.75;;;6.85;79.41
71938;BME280;59810;48.800;9.086;2023-02-20T03:25:49;98695.44;;;6.83;79.44
71938;BME280;59810;48.800;9.086;2023-02-20T03:28:41;98698.13;;;6.83;79.44
71938;BME280;59810;48.800;9.086;2023-02-20T03:31:18;98689.06;;;6.84;79.25
71938;BME280;59810;48.800;9.086;2023-02-20T03:34:06;98687.84;;;6.93;78.75
71938;BME280;59810;48.800;9.086;2023-02-20T03:37:14;98698.19;;;6.96;78.93
71938;BME280;59810;48.800;9.086;2023-02-20T03:40:05;98692.81;;;6.96;78.98
71938;BME280;59810;48.800;9.086;2023-02-20T03:42:53;98705.44;;;7.02;78.56
71938;BME280;59810;48.800;9.086;2023-02-20T03:45:41;98701.09;;;7.01;78.68
71938;BME280;59810;48.800;9.086;2023-02-20T03:48:15;98703.53;;;6.96;78.83
71938;BME280;59810;48.800;9.086;2023-02-20T03:50:44;98695.06;;;6.93;78.91
71938;BME280;59810;48.800;9.086;2023-02-20T03:53:10;98701.25;;;6.86;78.78
71938;BME280;59810;48.800;9.086;2023-02-20T03:55:37;98697.47;;;6.81;79.00
71938;BME280;59810;48.800;9.086;2023-02-20T03:58:06;98696.41;;;6.75;78.85
71938;BME280;59810;48.800;9.086;2023-02-20T04:00:38;98696.41;;;6.69;79.45
71938;BME280;59810;48.800;9.086;2023-02-20T04:03:09;98695.13;;;6.65;79.69
71938;BME280;59810;48.800;9.086;2023-02-20T04:05:39;98698.00;;;6.57;79.88
71938;BME280;59810;48.800;9.086;2023-02-20T04:10:46;98692.13;;;6.46;80.46
71938;BME280;59810;48.800;9.086;2023-02-20T04:13:13;98685.91;;;6.39;80.69
71938;BME280;59810;48.800;9.086;2023-02-20T04:15:40;98675.97;;;6.33;80.98
71938;BME280;59810;48.800;9.086;2023-02-20T04:20:34;98670.97;;;6.23;81.32
71938;BME280;59810;48.800;9.086;2023-02-20T04:23:06;98668.47;;;6.22;81.55
71938;BME280;59810;48.800;9.086;2023-02-20T04:25:44;98669.31;;;6.22;81.37
71938;BME280;59810;48.800;9.086;2023-02-20T04:28:11;98669.91;;;6.18;81.61
71938;BME280;59810;48.800;9.086;2023-02-20T04:30:38;98668.22;;;6.17;81.82
71938;BME280;59810;48.800;9.086;2023-02-20T04:33:04;98663.88;;;6.16;81.73
71938;BME280;59810;48.800;9.086;2023-02-20T04:35:30;98669.44;;;6.14;81.77
71938;BME280;59810;48.800;9.086;2023-02-20T04:37:55;98669.25;;;6.16;81.62
71938;BME280;59810;48.800;9.086;2023-02-20T04:40:22;98665.16;;;6.20;81.17
71938;BME280;59810;48.800;9.086;2023-02-20T04:42:48;98663.69;;;6.17;81.04
71938;BME280;59810;48.800;9.086;2023-02-20T04:45:13;98674.03;;;6.20;80.81
71938;BME280;59810;48.800;9.086;2023-02-20T04:47:39;98674.03;;;6.20;80.80
71938;BME280;59810;48.800;9.086;2023-02-20T04:50:04;98669.03;;;6.17;80.62
71938;BME280;59810;48.800;9.086;2023-02-20T04:52:30;98669.25;;;6.16;80.57
71938;BME280;59810;48.800;9.086;2023-02-20T04:54:57;98675.44;;;6.16;80.22
71938;BME280;59810;48.800;9.086;2023-02-20T04:57:23;98683.47;;;6.16;80.12
71938;BME280;59810;48.800;9.086;2023-02-20T04:59:48;98680.34;;;6.13;80.55
71938;BME280;59810;48.800;9.086;2023-02-20T05:02:14;98681.78;;;6.09;80.24
71938;BME280;59810;48.800;9.086;2023-02-20T05:04:39;98688.56;;;6.05;80.29
71938;BME280;59810;48.800;9.086;2023-02-20T05:07:05;98685.88;;;6.05;80.21
71938;BME280;59810;48.800;9.086;2023-02-20T05:09:32;98682.56;;;6.03;80.43
71938;BME280;59810;48.800;9.086;2023-02-20T05:11:58;98672.44;;;5.98;80.50
71938;BME280;59810;48.800;9.086;2023-02-20T05:14:23;98678.63;;;5.99;80.90
71938;BME280;59810;48.800;9.086;2023-02-20T05:16:49;98687.69;;;5.98;80.81
71938;BME280;59810;48.800;9.086;2023-02-20T05:19:17;98674.69;;;5.95;80.68
71938;BME280;59810;48.800;9.086;2023-02-20T05:21:43;98673.66;;;5.96;80.86
71938;BME280;59810;48.800;9.086;2023-02-20T05:24:27;98670.72;;;5.90;81.22
71938;BME280;59810;48.800;9.086;2023-02-20T05:26:56;98668.41;;;5.87;81.28
71938;BME280;59810;48.800;9.086;2023-02-20T05:29:22;98667.38;;;5.88;81.26
71938;BME280;59810;48.800;9.086;2023-02-20T05:31:47;98672.75;;;5.88;81.23
71938;BME280;59810;48.800;9.086;2023-02-20T05:34:13;98664.53;;;5.90;81.15
71938;BME280;59810;48.800;9.086;2023-02-20T05:36:38;98663.06;;;5.87;81.28
71938;BME280;59810;48.800;9.086;2023-02-20T05:39:04;98675.63;;;5.87;81.24
71938;BME280;59810;48.800;9.086;2023-02-20T05:41:30;98665.25;;;5.84;81.43
71938;BME280;59810;48.800;9.086;2023-02-20T05:43:55;98667.50;;;5.80;81.85
71938;BME280;59810;48.800;9.086;2023-02-20T05:46:22;98667.31;;;5.82;81.68
71938;BME280;59810;48.800;9.086;2023-02-20T05:48:49;98657.06;;;5.85;81.41
71938;BME280;59810;48.800;9.086;2023-02-20T05:51:20;98664.25;;;5.85;81.39
71938;BME280;59810;48.800;9.086;2023-02-20T05:53:45;98659.91;;;5.84;81.60
71938;BME280;59810;48.800;9.086;2023-02-20T05:56:10;98669.25;;;5.88;81.47
71938;BME280;59810;48.800;9.086;2023-02-20T05:58:41;98663.41;;;5.84;81.33
71938;BME280;59810;48.800;9.086;2023-02-20T06:01:07;98673.13;;;5.85;81.33
71938;BME280;59810;48.800;9.086;2023-02-20T06:03:32;98674.13;;;5.84;81.48
71938;BME280;59810;48.800;9.086;2023-02-20T06:05:57;98670.00;;;5.82;81.55
71938;BME280;59810;48.800;9.086;2023-02-20T06:08:22;98673.06;;;5.79;81.47
71938;BME280;59810;48.800;9.086;2023-02-20T06:10:48;98669.75;;;5.77;81.51
71938;BME280;59810;48.800;9.086;2023-02-20T06:13:16;98682.69;;;5.73;81.85
71938;BME280;59810;48.800;9.086;2023-02-20T06:15:41;98670.31;;;5.72;81.91
71938;BME280;59810;48.800;9.086;2023-02-20T06:18:06;98678.38;;;5.72;81.83
71938;BME280;59810;48.800;9.086;2023-02-20T06:20:32;98674.81;;;5.65;82.07
71938;BME280;59810;48.800;9.086;2023-02-20T06:22:59;98678.25;;;5.59;82.24
71938;BME280;59810;48.800;9.086;2023-02-20T06:25:26;98680.69;;;5.54;82.62
71938;BME280;59810;48.800;9.086;2023-02-20T06:27:52;98673.69;;;5.53;82.75
71938;BME280;59810;48.800;9.086;2023-02-20T06:30:17;98679.38;;;5.50;82.56
71938;BME280;59810;48.800;9.086;2023-02-20T06:32:45;98680.03;;;5.52;82.63
71938;BME280;59810;48.800;9.086;2023-02-20T06:35:10;98679.03;;;5.53;82.40
71938;BME280;59810;48.800;9.086;2023-02-20T06:37:36;98673.69;;;5.53;82.42
71938;BME280;59810;48.800;9.086;2023-02-20T06:40:03;98677.00;;;5.55;82.20
71938;BME280;59810;48.800;9.086;2023-02-20T06:42:31;98684.00;;;5.56;82.13
71938;BME280;59810;48.800;9.086;2023-02-20T06:44:57;98691.66;;;5.59;81.97
71938;BME280;59810;48.800;9.086;2023-02-20T06:47:22;98691.47;;;5.60;82.20
71938;BME280;59810;48.800;9.086;2023-02-20T06:49:47;98690.50;;;5.68;81.93
71938;BME280;59810;48.800;9.086;2023-02-20T06:52:13;98700.81;;;5.71;81.91
71938;BME280;59810;48.800;9.086;2023-02-20T06:54:41;98684.75;;;5.71;81.39
71938;BME280;59810;48.800;9.086;2023-02-20T06:57:06;98698.78;;;5.73;81.24
71938;BME280;59810;48.800;9.086;2023-02-20T06:59:32;98704.13;;;5.73;80.96
71938;BME280;59810;48.800;9.086;2023-02-20T07:02:04;98704.53;;;5.70;81.50
71938;BME280;59810;48.800;9.086;2023-02-20T07:04:29;98700.81;;;5.71;81.16
71938;BME280;59810;48.800;9.086;2023-02-20T07:06:55;98695.66;;;5.70;81.46
71938;BME280;59810;48.800;9.086;2023-02-20T07:09:23;98704.78;;;5.75;81.18
71938;BME280;59810;48.800;9.086;2023-02-20T07:11:53;98700.03;;;5.77;81.04
71938;BME280;59810;48.800;9.086;2023-02-20T07:14:19;98708.34;;;5.82;80.65
71938;BME280;59810;48.800;9.086;2023-02-20T07:16:44;98705.28;;;5.85;80.79
71938;BME280;59810;48.800;9.086;2023-02-20T07:19:09;98699.28;;;5.83;80.75
71938;BME280;59810;48.800;9.086;2023-02-20T07:21:35;98703.25;;;5.87;80.64
71938;BME280;59810;48.800;9.086;2023-02-20T07:24:00;98707.59;;;5.88;80.55
71938;BME280;59810;48.800;9.086;2023-02-20T07:26:27;98716.94;;;5.92;80.06
71938;BME280;59810;48.800;9.086;2023-02-20T07:28:56;98710.16;;;5.97;80.27
71938;BME280;59810;48.800;9.086;2023-02-20T07:31:28;98714.50;;;5.98;80.26
71938;BME280;59810;48.800;9.086;2023-02-20T07:33:53;98711.03;;;6.04;79.63
71938;BME280;59810;48.800;9.086;2023-02-20T07:36:21;98711.25;;;6.09;79.49
71938;BME280;59810;48.800;9.086;2023-02-20T07:38:54;98703.41;;;6.07;79.36
71938;BME280;59810;48.800;9.086;2023-02-20T07:41:20;98712.91;;;6.10;79.46
71938;BME280;59810;48.800;9.086;2023-02-20T07:43:45;98710.28;;;6.16;79.00
71938;BME280;59810;48.800;9.086;2023-02-20T07:46:10;98709.25;;;6.17;79.23
71938;BME280;59810;48.800;9.086;2023-02-20T07:48:35;98708.50;;;6.23;78.92
71938;BME280;59810;48.800;9.086;2023-02-20T07:51:01;98709.97;;;6.26;78.74
71938;BME280;59810;48.800;9.086;2023-02-20T07:53:26;98706.88;;;6.29;78.62
71938;BME280;59810;48.800;9.086;2023-02-20T07:55:52;98706.09;;;6.35;78.59
71938;BME280;59810;48.800;9.086;2023-02-20T07:58:17;98714.38;;;6.40;78.21
71938;BME280;59810;48.800;9.086;2023-02-20T08:00:43;98708.22;;;6.46;77.67
71938;BME280;59810;48.800;9.086;2023-02-20T08:03:08;98701.69;;;6.55;77.06
71938;BME280;59810;48.800;9.086;2023-02-20T08:05:35;98699.44;;;6.59;77.00
71938;BME280;59810;48.800;9.086;2023-02-20T08:08:01;98701.34;;;6.65;77.89
71938;BME280;59810;48.800;9.086;2023-02-20T08:10:27;98704.66;;;6.74;76.85
71938;BME280;59810;48.800;9.086;2023-02-20T08:12:53;98695.78;;;6.73;76.89
71938;BME280;59810;48.800;9.086;2023-02-20T08:15:19;98696.63;;;6.74;76.70
71938;BME280;59810;48.800;9.086;2023-02-20T08:17:45;98686.75;;;6.81;75.89
71938;BME280;59810;48.800;9.086;2023-02-20T08:20:12;98686.38;;;6.84;75.71
71938;BME280;59810;48.800;9.086;2023-02-20T08:22:38;98682.88;;;6.90;75.69
71938;BME280;59810;48.800;9.086;2023-02-20T08:25:04;98680.41;;;6.95;75.24
71938;BME280;59810;48.800;9.086;2023-02-20T08:27:30;98691.78;;;6.97;75.40
71938;BME280;59810;48.800;9.086;2023-02-20T08:29:56;98690.78;;;7.05;74.77
71938;BME280;59810;48.800;9.086;2023-02-20T08:32:22;98686.66;;;7.09;74.32
71938;BME280;59810;48.800;9.086;2023-02-20T08:34:47;98682.97;;;7.16;73.85
71938;BME280;59810;48.800;9.086;2023-02-20T08:37:12;98686.31;;;7.25;73.91
71938;BME280;59810;48.800;9.086;2023-02-20T08:39:41;98676.41;;;7.32;73.09
71938;BME280;59810;48.800;9.086;2023-02-20T08:42:06;98676.81;;;7.36;72.70
71938;BME280;59810;48.800;9.086;2023-02-20T08:44:31;98679.72;;;7.41;72.78
71938;BME280;59810;48.800;9.086;2023-02-20T08:46:59;98675.19;;;7.48;72.70
71938;BME280;59810;48.800;9.086;2023-02-20T08:49:25;98679.75;;;7.54;71.91
71938;BME280;59810;48.800;9.086;2023-02-20T08:51:54;98678.09;;;7.66;70.83
71938;BME280;59810;48.800;9.086;2023-02-20T08:54:22;98680.38;;;7.69;70.58
71938;BME280;59810;48.800;9.086;2023-02-20T08:56:50;98688.03;;;7.72;70.95
71938;BME280;59810;48.800;9.086;2023-02-20T08:59:15;98683.31;;;7.81;69.76
71938;BME280;59810;48.800;9.086;2023-02-20T09:01:41;98688.69;;;7.88;69.50
71938;BME280;59810;48.800;9.086;2023-02-20T09:04:08;98686.19;;;7.93;68.87
71938;BME280;59810;48.800;9.086;2023-02-20T09:06:35;98678.13;;;7.99;68.69
71938;BME280;59810;48.800;9.086;2023-02-20T09:09:00;98678.09;;;8.12;67.98
71938;BME280;59810;48.800;9.086;2023-02-20T09:11:27;98664.03;;;8.17;68.09
71938;BME280;59810;48.800;9.086;2023-02-20T09:13:55;98672.28;;;8.29;67.90
71938;BME280;59810;48.800;9.086;2023-02-20T09:16:22;98666.72;;;8.37;67.09
71938;BME280;59810;48.800;9.086;2023-02-20T09:18:48;98660.09;;;8.46;66.75
71938;BME280;59810;48.800;9.086;2023-02-20T09:21:16;98657.81;;;8.50;66.74
71938;BME280;59810;48.800;9.086;2023-02-20T09:23:44;98654.03;;;8.64;66.25
71938;BME280;59810;48.800;9.086;2023-02-20T09:26:12;98648.41;;;8.72;65.55
71938;BME280;59810;48.800;9.086;2023-02-20T09:28:38;98652.09;;;8.84;65.51
71938;BME280;59810;48.800;9.086;2023-02-20T09:31:06;98653.50;;;8.93;64.57
71938;BME280;59810;48.800;9.086;2023-02-20T09:33:31;98649.91;;;9.13;64.48
71938;BME280;59810;48.800;9.086;2023-02-20T09:35:57;98647.25;;;9.38;63.44
71938;BME280;59810;48.800;9.086;2023-02-20T09:38:25;98645.31;;;9.51;62.68
71938;BME280;59810;48.800;9.086;2023-02-20T09:40:57;98651.25;;;9.60;62.12
71938;BME280;59810;48.800;9.086;2023-02-20T09:46:24;98634.72;;;9.81;62.19
71938;BME280;59810;48.800;9.086;2023-02-20T09:51:22;98645.16;;;9.96;62.01
71938;BME280;59810;48.800;9.086;2023-02-20T09:56:20;98645.22;;;10.14;61.86
71938;BME280;59810;48.800;9.086;2023-02-20T09:59:05;98642.06;;;10.17;60.94
71938;BME280;59810;48.800;9.086;2023-02-20T10:01:33;98644.38;;;10.14;61.14
71938;BME280;59810;48.800;9.086;2023-02-20T10:06:31;98637.38;;;10.06;61.54
71938;BME280;59810;48.800;9.086;2023-02-20T10:08:57;98628.81;;;9.91;61.95
71938;BME280;59810;48.800;9.086;2023-02-20T10:19:48;98625.81;;;9.74;62.95
71938;BME280;59810;48.800;9.086;2023-02-20T10:22:26;98613.00;;;9.70;63.52
71938;BME280;59810;48.800;9.086;2023-02-20T10:27:47;98615.91;;;9.68;63.01
71938;BME280;59810;48.800;9.086;2023-02-20T10:30:23;98616.44;;;9.83;63.01
71938;BME280;59810;48.800;9.086;2023-02-20T10:38:20;98616.81;;;10.12;61.69
71938;BME280;59810;48.800;9.086;2023-02-20T10:41:01;98619.00;;;10.21;61.55
71938;BME280;59810;48.800;9.086;2023-02-20T10:43:35;98609.34;;;10.32;60.85
71938;BME280;59810;48.800;9.086;2023-02-20T10:48:29;98605.91;;;10.43;60.04
71938;BME280;59810;48.800;9.086;2023-02-20T10:53:59;98602.22;;;10.74;60.12
71938;BME280;59810;48.800;9.086;2023-02-20T11:01:29;98595.72;;;10.94;59.70
71938;BME280;59810;48.800;9.086;2023-02-20T11:04:17;98589.63;;;10.98;59.91
71938;BME280;59810;48.800;9.086;2023-02-20T11:09:12;98582.31;;;11.17;57.85
71938;BME280;59810;48.800;9.086;2023-02-20T11:11:43;98580.94;;;11.26;57.40
71938;BME280;59810;48.800;9.086;2023-02-20T11:14:23;98573.69;;;11.38;57.04
71938;BME280;59810;48.800;9.086;2023-02-20T11:16:58;98584.97;;;11.47;56.20
71938;BME280;59810;48.800;9.086;2023-02-20T11:19:30;98580.19;;;11.61;56.20
71938;BME280;59810;48.800;9.086;2023-02-20T11:21:57;98581.47;;;11.70;55.32
71938;BME280;59810;48.800;9.086;2023-02-20T11:24:27;98570.22;;;11.73;58.00
71938;BME280;59810;48.800;9.086;2023-02-20T11:27:19;98572.94;;;11.96;59.29
71938;BME280;59810;48.800;9.086;2023-02-20T11:30:00;98560.84;;;12.10;55.57
71938;BME280;59810;48.800;9.086;2023-02-20T11:32:38;98554.56;;;12.22;54.23
71938;BME280;59810;48.800;9.086;2023-02-20T11:37:39;98554.44;;;12.40;55.41
71938;BME280;59810;48.800;9.086;2023-02-20T11:40:13;98550.53;;;12.48;54.49
71938;BME280;59810;48.800;9.086;2023-02-20T11:42:38;98541.91;;;12.51;53.52
71938;BME280;59810;48.800;9.086;2023-02-20T11:45:14;98545.41;;;12.63;53.38
71938;BME280;59810;48.800;9.086;2023-02-20T11:47:40;98542.66;;;12.74;54.21
71938;BME280;59810;48.800;9.086;2023-02-20T11:50:19;98537.44;;;12.85;52.90
71938;BME280;59810;48.800;9.086;2023-02-20T11:55:44;98529.63;;;13.17;51.12
71938;BME280;59810;48.800;9.086;2023-02-20T11:58:22;98516.72;;;13.35;50.16
71938;BME280;59810;48.800;9.086;2023-02-20T12:00:50;98514.66;;;13.43;49.94
71938;BME280;59810;48.800;9.086;2023-02-20T12:03:32;98510.44;;;13.52;48.91
71938;BME280;59810;48.800;9.086;2023-02-20T12:06:36;98498.66;;;13.63;49.07
71938;BME280;59810;48.800;9.086;2023-02-20T12:09:06;98497.44;;;13.70;48.60
71938;BME280;59810;48.800;9.086;2023-02-20T12:11:36;98485.09;;;13.80;48.24
71938;BME280;59810;48.800;9.086;2023-02-20T12:14:01;98486.06;;;13.90;47.96
71938;BME280;59810;48.800;9.086;2023-02-20T12:26:59;98469.03;;;14.60;45.85
71938;BME280;59810;48.800;9.086;2023-02-20T12:35:32;98454.75;;;14.97;45.76
71938;BME280;59810;48.800;9.086;2023-02-20T12:38:12;98443.69;;;15.09;44.88
71938;BME280;59810;48.800;9.086;2023-02-20T12:41:38;98439.75;;;15.26;45.47
71938;BME280;59810;48.800;9.086;2023-02-20T12:46:34;98433.66;;;15.46;44.38
71938;BME280;59810;48.800;9.086;2023-02-20T12:59:43;98412.88;;;15.67;41.91
71938;BME280;59810;48.800;9.086;2023-02-20T13:02:32;98402.03;;;15.77;41.52
71938;BME280;59810;48.800;9.086;2023-02-20T13:05:01;98405.75;;;15.61;40.23
71938;BME280;59810;48.800;9.086;2023-02-20T13:07:38;98406.88;;;15.70;40.52
71938;BME280;59810;48.800;9.086;2023-02-20T13:10:43;98394.72;;;15.93;41.68
71938;BME280;59810;48.800;9.086;2023-02-20T13:13:12;98390.16;;;16.04;39.49
71938;BME280;59810;48.800;9.086;2023-02-20T13:18:24;98382.91;;;16.35;38.82
71938;BME280;59810;48.800;9.086;2023-02-20T13:21:03;98365.19;;;16.27;36.44
71938;BME280;59810;48.800;9.086;2023-02-20T13:26:53;98363.84;;;16.35;37.05
71938;BME280;59810;48.800;9.086;2023-02-20T13:29:28;98348.84;;;16.42;36.63
71938;BME280;59810;48.800;9.086;2023-02-20T13:32:02;98349.41;;;16.49;36.87
71938;BME280;59810;48.800;9.086;2023-02-20T13:34:39;98339.06;;;16.62;37.43
71938;BME280;59810;48.800;9.086;2023-02-20T13:45:41;98318.31;;;16.56;35.19
71938;BME280;59810;48.800;9.086;2023-02-20T13:53:53;98311.84;;;16.92;34.37
71938;BME280;59810;48.800;9.086;2023-02-20T13:59:12;98309.13;;;16.92;33.32
71938;BME280;59810;48.800;9.086;2023-02-20T14:02:19;98303.91;;;16.86;32.41
71938;BME280;59810;48.800;9.086;2023-02-20T14:05:06;98316.47;;;16.87;32.50
71938;BME280;59810;48.800;9.086;2023-02-20T14:07:45;98313.75;;;16.76;31.21
71938;BME280;59810;48.800;9.086;2023-02-20T14:10:30;98306.94;;;16.69;31.16
71938;BME280;59810;48.800;9.086;2023-02-20T14:15:33;98312.06;;;16.50;30.95
71938;BME280;59810;48.800;9.086;2023-02-20T14:18:14;98320.22;;;16.40;30.92
71938;BME280;59810;48.800;9.086;2023-02-20T14:20:40;98312.06;;;16.30;31.62
71938;BME280;59810;48.800;9.086;2023-02-20T14:23:30;98303.03;;;16.24;31.50
71938;BME280;59810;48.800;9.086;2023-02-20T14:26:16;98295.66;;;16.09;31.80
71938;BME280;59810;48.800;9.086;2023-02-20T14:28:47;98293.47;;;16.11;31.59
71938;BME280;59810;48.800;9.086;2023-02-20T14:33:50;98311.19;;;16.14;31.42
71938;BME280;59810;48.800;9.086;2023-02-20T14:36:20;98309.00;;;16.16;32.39
71938;BME280;59810;48.800;9.086;2023-02-20T14:41:58;98270.91;;;16.36;32.77
71938;BME280;59810;48.800;9.086;2023-02-20T14:44:25;98275.00;;;16.44;32.89
71938;BME280;59810;48.800;9.086;2023-02-20T14:46:58;98280.72;;;16.37;33.08
71938;BME280;59810;48.800;9.086;2023-02-20T14:49:30;98268.69;;;16.23;33.58
71938;BME280;59810;48.800;9.086;2023-02-20T14:54:33;98268.97;;;16.11;33.86
71938;BME280;59810;48.800;9.086;2023-02-20T14:56:59;98261.59;;;16.07;32.93
71938;BME280;59810;48.800;9.086;2023-02-20T14:59:30;98258.31;;;16.05;32.86
71938;BME280;59810;48.800;9.086;2023-02-20T15:02:09;98259.91;;;15.85;32.46
71938;BME280;59810;48.800;9.086;2023-02-20T15:04:54;98257.16;;;15.75;32.31
71938;BME280;59810;48.800;9.086;2023-02-20T15:07:22;98255.47;;;15.59;31.96
71938;BME280;59810;48.800;9.086;2023-02-20T15:09:51;98253.75;;;15.43;32.44
71938;BME280;59810;48.800;9.086;2023-02-20T15:12:38;98256.47;;;15.48;32.91
71938;BME280;59810;48.800;9.086;2023-02-20T15:15:12;98261.94;;;15.48;31.93
71938;BME280;59810;48.800;9.086;2023-02-20T15:17:41;98262.97;;;15.37;32.24
71938;BME280;59810;48.800;9.086;2023-02-20T15:20:18;98261.53;;;15.24;31.59
71938;BME280;59810;48.800;9.086;2023-02-20T15:22:44;98263.88;;;15.00;32.35
71938;BME280;59810;48.800;9.086;2023-02-20T15:25:27;98269.50;;;14.93;33.52
71938;BME280;59810;48.800;9.086;2023-02-20T15:28:26;98263.44;;;14.76;33.53
71938;BME280;59810;48.800;9.086;2023-02-20T15:33:32;98256.44;;;14.53;33.03
71938;BME280;59810;48.800;9.086;2023-02-20T15:35:58;98255.22;;;14.39;33.34
71938;BME280;59810;48.800;9.086;2023-02-20T15:38:26;98258.66;;;14.29;33.27
71938;BME280;59810;48.800;9.086;2023-02-20T15:40:55;98251.78;;;14.17;34.22
71938;BME280;59810;48.800;9.086;2023-02-20T15:43:22;98263.06;;;14.04;35.00